sensor_id;sensor_type;location;lat;lon;timestamp;pressure;altitude;pressure_sealevel;temperature;humidity
33155;BME280;19511;42.682;23.332;2023-02-18T00:02:07;95915.34;;;3.17;100.00
33155;BME280;19511;42.682;23.332;2023-02-18T00:04:33;95890.53;;;3.10;100.00
33155;BME280;19511;42.682;23.332;2023-02-18T00:06:59;95904.75;;;3.03;100.00
33155;BME280;19511;42.682;23.332;2023-02-18T00:09:24;95792.41;;;2.18;100.00
33155;BME280;19511;42.682;23.332;2023-02-18T00:11:50;95901.47;;;2.98;100.00
33155;BME280;19511;42.682;23.332;2023-02-18T00:14:16;95908.97;;;3.01;100.00
33155;BME280;19511;42.682;23.332;2023-02-18T00:16:42;95782.22;;;2.27;100.00
33155;BME280;19511;42.682;23.332;2023-02-18T00:19:12;95901.47;;;3.10;100.00
33155;BME280;19511;42.682;23.332;2023-02-18T00:21:38;95778.34;;;2.16;100.00
33155;BME280;19511;42.682;23.332;2023-02-18T00:24:04;95875.63;;;2.83;100.00
33155;BME280;19511;42.682;23.332;2023-02-18T00:26:30;95881.69;;;2.88;100.00
33155;BME280;19511;42.682;23.332;2023-02-18T00:28:56;95878.13;;;2.88;100.00
33155;BME280;19511;42.682;23.332;2023-02-18T00:31:26;95860.84;;;2.84;100.00
33155;BME280;19511;42.682;23.332;2023-02-18T00:33:53;95875.75;;;2.86;100.00
33155;BME280;19511;42.682;23.332;2023-02-18T00:36:20;95857.06;;;2.64;100.00
33155;BME280;19511;42.682;23.332;2023-02-18T00:38:48;95768.84;;;1.89;100.00
33155;BME280;19511;42.682;23.332;2023-02-18T00:41:14;95874.03;;;2.57;100.00
33155;BME280;19511;42.682;23.332;2023-02-18T00:43:40;95763.41;;;2.01;100.00
33155;BME280;19511;42.682;23.332;2023-02-18T00:46:06;95761.47;;;2.02;100.00
33155;BME280;19511;42.682;23.332;2023-02-18T00:48:32;95862.53;;;2.64;100.00
33155;BME280;19511;42.682;23.332;2023-02-18T00:50:58;95870.97;;;2.58;100.00
33155;BME280;19511;42.682;23.332;2023-02-18T00:53:26;95841.13;;;2.53;100.00
33155;BME280;19511;42.682;23.332;2023-02-18T00:55:51;95841.59;;;2.43;100.00
33155;BME280;19511;42.682;23.332;2023-02-18T00:58:16;95841.13;;;2.53;100.00
33155;BME280;19511;42.682;23.332;2023-02-18T01:00:42;95839.09;;;2.50;100.00
33155;BME280;19511;42.682;23.332;2023-02-18T01:03:08;95755.00;;;1.94;100.00
33155;BME280;19511;42.682;23.332;2023-02-18T01:05:36;95866.66;;;2.82;100.00
33155;BME280;19511;42.682;23.332;2023-02-18T01:08:02;95798.47;;;2.36;100.00
33155;BME280;19511;42.682;23.332;2023-02-18T01:10:28;95842.94;;;2.61;100.00
33155;BME280;19511;42.682;23.332;2023-02-18T01:12:54;95841.38;;;2.60;100.00
33155;BME280;19511;42.682;23.332;2023-02-18T01:15:20;95778.75;;;1.93;100.00
33155;BME280;19511;42.682;23.332;2023-02-18T01:17:45;95836.56;;;2.45;100.00
33155;BME280;19511;42.682;23.332;2023-02-18T01:20:12;95837.72;;;2.44;100.00
33155;BME280;19511;42.682;23.332;2023-02-18T01:22:41;95859.91;;;2.55;100.00
33155;BME280;19511;42.682;23.332;2023-02-18T01:25:08;95846.03;;;2.35;100.00
33155;BME280;19511;42.682;23.332;2023-02-18T01:27:35;95847.97;;;2.47;100.00
33155;BME280;19511;42.682;23.332;2023-02-18T01:30:02;95857.75;;;2.60;100.00
33155;BME280;19511;42.682;23.332;2023-02-18T01:32:28;95844.75;;;2.45;100.00
33155;BME280;19511;42.682;23.332;2023-02-18T01:34:53;95749.06;;;1.79;100.00
33155;BME280;19511;42.682;23.332;2023-02-18T01:37:19;95852.50;;;2.43;100.00
33155;BME280;19511;42.682;23.332;2023-02-18T01:39:44;95853.63;;;2.29;100.00
33155;BME280;19511;42.682;23.332;2023-02-18T01:42:22;95849.75;;;2.31;100.00
33155;BME280;19511;42.682;23.332;2023-02-18T01:44:49;95842.47;;;2.35;100.00
33155;BME280;19511;42.682;23.332;2023-02-18T01:47:15;95752.81;;;1.75;100.00
33155;BME280;19511;42.682;23.332;2023-02-18T01:49:42;95856.03;;;2.43;100.00
33155;BME280;19511;42.682;23.332;2023-02-18T01:52:25;95879.38;;;2.53;100.00
33155;BME280;19511;42.682;23.332;2023-02-18T01:54:55;95858.63;;;2.40;100.00
33155;BME280;19511;42.682;23.332;2023-02-18T01:57:30;95791.97;;;2.04;100.00
33155;BME280;19511;42.682;23.332;2023-02-18T02:00:00;95875.63;;;2.45;100.00
33155;BME280;19511;42.682;23.332;2023-02-18T02:02:29;95859.09;;;2.42;100.00
33155;BME280;19511;42.682;23.332;2023-02-18T02:04:56;95872.31;;;2.65;100.00
33155;BME280;19511;42.682;23.332;2023-02-18T02:07:24;95853.69;;;2.67;100.00
33155;BME280;19511;42.682;23.332;2023-02-18T02:09:52;95744.75;;;1.78;100.00
33155;BME280;19511;42.682;23.332;2023-02-18T02:15:31;95864.47;;;2.51;100.00
33155;BME280;19511;42.682;23.332;2023-02-18T02:32:23;95853.56;;;2.63;100.00
33155;BME280;19511;42.682;23.332;2023-02-18T02:34:56;95842.50;;;2.47;100.00
33155;BME280;19511;42.682;23.332;2023-02-18T02:46:02;95830.63;;;2.18;100.00
33155;BME280;19511;42.682;23.332;2023-02-18T02:48:04;95713.72;;;1.25;100.00
33155;BME280;19511;42.682;23.332;2023-02-18T02:50:59;95821.72;;;1.84;100.00
33155;BME280;19511;42.682;23.332;2023-02-18T02:53:30;95716.91;;;1.27;100.00
33155;BME280;19511;42.682;23.332;2023-02-18T02:55:57;95831.81;;;1.84;100.00
33155;BME280;19511;42.682;23.332;2023-02-18T02:58:23;95835.63;;;2.04;100.00
33155;BME280;19511;42.682;23.332;2023-02-18T03:01:55;95842.16;;;1.78;100.00
33155;BME280;19511;42.682;23.332;2023-02-18T03:12:11;95858.44;;;1.32;100.00
33155;BME280;19511;42.682;23.332;2023-02-18T03:15:10;95849.25;;;1.37;100.00
33155;BME280;19511;42.682;23.332;2023-02-18T03:17:51;95851.91;;;1.45;100.00
33155;BME280;19511;42.682;23.332;2023-02-18T03:20:26;95852.50;;;1.51;100.00
33155;BME280;19511;42.682;23.332;2023-02-18T03:22:54;95792.56;;;1.09;100.00
33155;BME280;19511;42.682;23.332;2023-02-18T03:25:24;95871.19;;;1.61;100.00
33155;BME280;19511;42.682;23.332;2023-02-18T03:27:52;95871.91;;;1.50;100.00
33155;BME280;19511;42.682;23.332;2023-02-18T03:30:26;95871.06;;;1.37;100.00
33155;BME280;19511;42.682;23.332;2023-02-18T03:32:57;95899.31;;;1.53;100.00
33155;BME280;19511;42.682;23.332;2023-02-18T03:35:25;95874.97;;;1.27;100.00
33155;BME280;19511;42.682;23.332;2023-02-18T03:38:17;95881.50;;;1.35;100.00
33155;BME280;19511;42.682;23.332;2023-02-18T03:40:40;95804.59;;;0.87;100.00
33155;BME280;19511;42.682;23.332;2023-02-18T03:43:05;95768.78;;;0.55;100.00
33155;BME280;19511;42.682;23.332;2023-02-18T03:45:31;95798.59;;;0.72;100.00
33155;BME280;19511;42.682;23.332;2023-02-18T03:47:56;95874.84;;;1.23;100.00
33155;BME280;19511;42.682;23.332;2023-02-18T03:50:22;95897.97;;;1.38;100.00
33155;BME280;19511;42.682;23.332;2023-02-18T03:52:47;95893.78;;;1.41;100.00
33155;BME280;19511;42.682;23.332;2023-02-18T03:55:13;95907.56;;;1.44;100.00
33155;BME280;19511;42.682;23.332;2023-02-18T03:57:38;95900.91;;;1.33;100.00
33155;BME280;19511;42.682;23.332;2023-02-18T04:00:04;95903.91;;;1.40;100.00
33155;BME280;19511;42.682;23.332;2023-02-18T04:02:31;95796.19;;;0.71;100.00
33155;BME280;19511;42.682;23.332;2023-02-18T04:04:56;95891.34;;;1.48;100.00
33155;BME280;19511;42.682;23.332;2023-02-18T04:07:22;95874.91;;;1.36;100.00
33155;BME280;19511;42.682;23.332;2023-02-18T04:09:47;95864.13;;;1.39;100.00
33155;BME280;19511;42.682;23.332;2023-02-18T04:12:13;95899.94;;;1.71;100.00
33155;BME280;19511;42.682;23.332;2023-02-18T04:14:42;95881.06;;;1.87;100.00
33155;BME280;19511;42.682;23.332;2023-02-18T04:17:07;95886.94;;;1.77;100.00
33155;BME280;19511;42.682;23.332;2023-02-18T04:19:34;95842.53;;;1.55;100.00
33155;BME280;19511;42.682;23.332;2023-02-18T04:22:00;95882.59;;;1.76;100.00
33155;BME280;19511;42.682;23.332;2023-02-18T04:24:25;95815.69;;;1.45;100.00
33155;BME280;19511;42.682;23.332;2023-02-18T04:26:51;95853.81;;;1.66;100.00
33155;BME280;19511;42.682;23.332;2023-02-18T04:29:16;95866.19;;;1.97;100.00
33155;BME280;19511;42.682;23.332;2023-02-18T04:31:42;95864.25;;;1.98;100.00
33155;BME280;19511;42.682;23.332;2023-02-18T04:34:07;95848.75;;;1.77;100.00
33155;BME280;19511;42.682;23.332;2023-02-18T04:36:33;95843.94;;;1.74;100.00
33155;BME280;19511;42.682;23.332;2023-02-18T04:38:58;95878.41;;;1.57;100.00
33155;BME280;19511;42.682;23.332;2023-02-18T04:41:24;95743.59;;;0.58;100.00
33155;BME280;19511;42.682;23.332;2023-02-18T04:43:49;95877.19;;;1.34;100.00
33155;BME280;19511;42.682;23.332;2023-02-18T04:46:15;95861.69;;;1.25;100.00
33155;BME280;19511;42.682;23.332;2023-02-18T04:48:40;95875.06;;;1.18;100.00
33155;BME280;19511;42.682;23.332;2023-02-18T04:51:06;95887.75;;;0.84;100.00
33155;BME280;19511;42.682;23.332;2023-02-18T04:53:32;95887.56;;;0.89;100.00
33155;BME280;19511;42.682;23.332;2023-02-18T04:55:57;95890.03;;;0.73;100.00
33155;BME280;19511;42.682;23.332;2023-02-18T04:58:24;95893.81;;;0.90;100.00
33155;BME280;19511;42.682;23.332;2023-02-18T05:00:49;95798.13;;;0.40;100.00
33155;BME280;19511;42.682;23.332;2023-02-18T05:03:15;95882.75;;;0.86;100.00
33155;BME280;19511;42.682;23.332;2023-02-18T05:05:41;95904.94;;;1.06;100.00
33155;BME280;19511;42.682;23.332;2023-02-18T05:08:07;95906.16;;;0.87;100.00
33155;BME280;19511;42.682;23.332;2023-02-18T05:10:33;95904.84;;;0.93;100.00
33155;BME280;19511;42.682;23.332;2023-02-18T05:12:58;95777.94;;;0.11;100.00
33155;BME280;19511;42.682;23.332;2023-02-18T05:15:24;95863.09;;;0.80;100.00
33155;BME280;19511;42.682;23.332;2023-02-18T05:17:50;95879.84;;;0.91;100.00
33155;BME280;19511;42.682;23.332;2023-02-18T05:20:15;95856.75;;;0.97;100.00
33155;BME280;19511;42.682;23.332;2023-02-18T05:22:41;95879.63;;;1.26;100.00
33155;BME280;19511;42.682;23.332;2023-02-18T05:25:07;95877.56;;;1.44;100.00
33155;BME280;19511;42.682;23.332;2023-02-18T05:27:33;95866.31;;;1.46;100.00
33155;BME280;19511;42.682;23.332;2023-02-18T05:29:58;95762.00;;;0.82;100.00
33155;BME280;19511;42.682;23.332;2023-02-18T05:32:23;95870.56;;;1.77;100.00
33155;BME280;19511;42.682;23.332;2023-02-18T05:34:49;95867.50;;;1.78;100.00
33155;BME280;19511;42.682;23.332;2023-02-18T05:37:18;95879.50;;;1.99;100.00
33155;BME280;19511;42.682;23.332;2023-02-18T05:39:44;95863.59;;;2.01;100.00
33155;BME280;19511;42.682;23.332;2023-02-18T05:42:09;95762.63;;;1.42;100.00
33155;BME280;19511;42.682;23.332;2023-02-18T05:44:35;95886.56;;;2.12;100.00
33155;BME280;19511;42.682;23.332;2023-02-18T05:47:04;95867.53;;;1.91;100.00
33155;BME280;19511;42.682;23.332;2023-02-18T05:49:30;95782.56;;;1.34;100.00
33155;BME280;19511;42.682;23.332;2023-02-18T05:51:56;95838.66;;;1.56;100.00
33155;BME280;19511;42.682;23.332;2023-02-18T05:54:22;95897.00;;;1.98;100.00
33155;BME280;19511;42.682;23.332;2023-02-18T05:56:48;95894.63;;;1.96;100.00
33155;BME280;19511;42.682;23.332;2023-02-18T05:59:13;95907.34;;;2.04;100.00
33155;BME280;19511;42.682;23.332;2023-02-18T06:01:39;95893.13;;;1.99;100.00
33155;BME280;19511;42.682;23.332;2023-02-18T06:04:04;95883.53;;;2.14;100.00
33155;BME280;19511;42.682;23.332;2023-02-18T06:06:30;95902.41;;;2.19;100.00
33155;BME280;19511;42.682;23.332;2023-02-18T06:08:55;95898.00;;;2.26;100.00
33155;BME280;19511;42.682;23.332;2023-02-18T06:11:21;95890.03;;;2.21;100.00
33155;BME280;19511;42.682;23.332;2023-02-18T06:13:46;95893.19;;;2.11;100.00
33155;BME280;19511;42.682;23.332;2023-02-18T06:16:12;95899.13;;;2.25;100.00
33155;BME280;19511;42.682;23.332;2023-02-18T06:18:37;95903.38;;;2.48;100.00
33155;BME280;19511;42.682;23.332;2023-02-18T06:21:03;95687.38;;;1.29;100.00
33155;BME280;19511;42.682;23.332;2023-02-18T06:23:32;95902.84;;;2.67;100.00
33155;BME280;19511;42.682;23.332;2023-02-18T06:25:58;95883.38;;;2.81;100.00
33155;BME280;19511;42.682;23.332;2023-02-18T06:28:24;95885.19;;;3.01;100.00
33155;BME280;19511;42.682;23.332;2023-02-18T06:30:49;95784.50;;;2.50;100.00
33155;BME280;19511;42.682;23.332;2023-02-18T06:33:15;95881.41;;;3.06;100.00
33155;BME280;19511;42.682;23.332;2023-02-18T06:35:41;95870.22;;;3.23;100.00
33155;BME280;19511;42.682;23.332;2023-02-18T06:38:07;95861.59;;;3.09;100.00
33155;BME280;19511;42.682;23.332;2023-02-18T06:40:32;95879.31;;;3.40;100.00
33155;BME280;19511;42.682;23.332;2023-02-18T06:42:58;95779.97;;;2.95;100.00
33155;BME280;19511;42.682;23.332;2023-02-18T06:45:24;95863.88;;;3.60;100.00
33155;BME280;19511;42.682;23.332;2023-02-18T06:47:49;95889.44;;;3.80;100.00
33155;BME280;19511;42.682;23.332;2023-02-18T06:50:15;95883.19;;;3.80;100.00
33155;BME280;19511;42.682;23.332;2023-02-18T06:52:40;95865.50;;;3.77;100.00
33155;BME280;19511;42.682;23.332;2023-02-18T06:55:07;95868.81;;;3.83;100.00
33155;BME280;19511;42.682;23.332;2023-02-18T06:57:36;95786.28;;;3.24;100.00
33155;BME280;19511;42.682;23.332;2023-02-18T07:00:02;95881.38;;;4.00;100.00
33155;BME280;19511;42.682;23.332;2023-02-18T07:02:28;95774.34;;;3.45;100.00
33155;BME280;19511;42.682;23.332;2023-02-18T07:04:53;95861.16;;;4.04;100.00
33155;BME280;19511;42.682;23.332;2023-02-18T07:07:19;95870.22;;;4.21;100.00
33155;BME280;19511;42.682;23.332;2023-02-18T07:09:44;95796.31;;;3.76;100.00
33155;BME280;19511;42.682;23.332;2023-02-18T07:12:10;95883.56;;;4.38;100.00
33155;BME280;19511;42.682;23.332;2023-02-18T07:14:35;95880.41;;;4.52;100.00
33155;BME280;19511;42.682;23.332;2023-02-18T07:17:03;95861.50;;;4.47;100.00
33155;BME280;19511;42.682;23.332;2023-02-18T07:19:28;95876.69;;;4.61;100.00
33155;BME280;19511;42.682;23.332;2023-02-18T07:21:58;95865.63;;;4.57;100.00
33155;BME280;19511;42.682;23.332;2023-02-18T07:24:27;95858.84;;;4.67;100.00
33155;BME280;19511;42.682;23.332;2023-02-18T07:26:53;95854.03;;;4.80;100.00
33155;BME280;19511;42.682;23.332;2023-02-18T07:29:18;95856.88;;;4.99;100.00
33155;BME280;19511;42.682;23.332;2023-02-18T07:31:46;95812.88;;;4.60;100.00
33155;BME280;19511;42.682;23.332;2023-02-18T07:34:16;95858.97;;;5.06;100.00
33155;BME280;19511;42.682;23.332;2023-02-18T07:36:44;95858.78;;;5.15;100.00
33155;BME280;19511;42.682;23.332;2023-02-18T07:39:12;95867.09;;;5.18;100.00
33155;BME280;19511;42.682;23.332;2023-02-18T07:41:38;95771.69;;;4.56;100.00
33155;BME280;19511;42.682;23.332;2023-02-18T07:44:04;95867.94;;;5.22;100.00
33155;BME280;19511;42.682;23.332;2023-02-18T07:46:29;95776.19;;;4.65;100.00
33155;BME280;19511;42.682;23.332;2023-02-18T07:48:56;95875.78;;;5.40;100.00
33155;BME280;19511;42.682;23.332;2023-02-18T07:51:21;95875.66;;;5.52;100.00
33155;BME280;19511;42.682;23.332;2023-02-18T07:53:47;95888.78;;;5.43;100.00
33155;BME280;19511;42.682;23.332;2023-02-18T07:56:12;95823.34;;;5.26;100.00
33155;BME280;19511;42.682;23.332;2023-02-18T07:58:38;95875.66;;;5.72;100.00
33155;BME280;19511;42.682;23.332;2023-02-18T08:01:09;95840.00;;;5.52;100.00
33155;BME280;19511;42.682;23.332;2023-02-18T08:03:35;95879.44;;;5.83;100.00
33155;BME280;19511;42.682;23.332;2023-02-18T08:06:02;95778.94;;;5.39;100.00
33155;BME280;19511;42.682;23.332;2023-02-18T08:08:30;95877.84;;;6.21;100.00
33155;BME280;19511;42.682;23.332;2023-02-18T08:10:58;95798.66;;;5.84;100.00
33155;BME280;19511;42.682;23.332;2023-02-18T08:13:23;95802.59;;;6.07;100.00
33155;BME280;19511;42.682;23.332;2023-02-18T08:15:49;95867.78;;;6.76;99.05
33155;BME280;19511;42.682;23.332;2023-02-18T08:18:20;95781.59;;;6.41;97.71
33155;BME280;19511;42.682;23.332;2023-02-18T08:20:46;95833.59;;;7.00;96.70
33155;BME280;19511;42.682;23.332;2023-02-18T08:23:13;95850.16;;;7.30;96.18
33155;BME280;19511;42.682;23.332;2023-02-18T08:25:44;95850.59;;;7.36;93.73
33155;BME280;19511;42.682;23.332;2023-02-18T08:28:12;95845.91;;;7.37;92.82
33155;BME280;19511;42.682;23.332;2023-02-18T08:30:38;95846.25;;;7.62;90.59
33155;BME280;19511;42.682;23.332;2023-02-18T08:33:03;95746.41;;;7.04;90.00
33155;BME280;19511;42.682;23.332;2023-02-18T08:35:29;95833.69;;;7.64;90.00
33155;BME280;19511;42.682;23.332;2023-02-18T08:37:54;95857.59;;;7.91;87.21
33155;BME280;19511;42.682;23.332;2023-02-18T08:40:20;95822.81;;;7.75;86.52
33155;BME280;19511;42.682;23.332;2023-02-18T08:42:45;95842.47;;;7.74;89.71
33155;BME280;19511;42.682;23.332;2023-02-18T08:45:11;95806.44;;;7.56;88.22
33155;BME280;19511;42.682;23.332;2023-02-18T08:47:39;95848.13;;;7.88;86.81
33155;BME280;19511;42.682;23.332;2023-02-18T08:50:05;95845.16;;;8.04;89.96
33155;BME280;19511;42.682;23.332;2023-02-18T08:52:30;95838.06;;;8.03;84.20
33155;BME280;19511;42.682;23.332;2023-02-18T08:54:55;95847.97;;;8.08;84.08
33155;BME280;19511;42.682;23.332;2023-02-18T08:57:21;95856.56;;;8.40;80.89
33155;BME280;19511;42.682;23.332;2023-02-18T08:59:46;95851.03;;;8.40;81.45
33155;BME280;19511;42.682;23.332;2023-02-18T09:02:12;95828.09;;;8.25;82.82
33155;BME280;19511;42.682;23.332;2023-02-18T09:04:38;95844.13;;;8.54;79.87
33155;BME280;19511;42.682;23.332;2023-02-18T09:07:04;95839.03;;;8.59;81.28
33155;BME280;19511;42.682;23.332;2023-02-18T09:09:31;95846.63;;;8.70;80.15
33155;BME280;19511;42.682;23.332;2023-02-18T09:11:56;95859.34;;;8.81;80.90
33155;BME280;19511;42.682;23.332;2023-02-18T09:14:22;95848.31;;;8.81;78.09
33155;BME280;19511;42.682;23.332;2023-02-18T09:16:50;95844.38;;;8.82;76.33
33155;BME280;19511;42.682;23.332;2023-02-18T09:19:19;95838.03;;;8.75;78.18
33155;BME280;19511;42.682;23.332;2023-02-18T09:21:45;95835.78;;;8.95;78.23
33155;BME280;19511;42.682;23.332;2023-02-18T09:24:15;95846.44;;;8.93;76.31
33155;BME280;19511;42.682;23.332;2023-02-18T09:26:41;95762.56;;;8.53;75.83
33155;BME280;19511;42.682;23.332;2023-02-18T09:29:06;95836.00;;;9.24;73.98
33155;BME280;19511;42.682;23.332;2023-02-18T09:31:32;95719.38;;;8.71;73.56
33155;BME280;19511;42.682;23.332;2023-02-18T09:33:59;95731.78;;;8.99;73.39
33155;BME280;19511;42.682;23.332;2023-02-18T09:36:26;95815.78;;;9.79;69.79
33155;BME280;19511;42.682;23.332;2023-02-18T09:38:52;95801.94;;;9.75;67.65
33155;BME280;19511;42.682;23.332;2023-02-18T09:41:37;95814.25;;;10.00;67.96
33155;BME280;19511;42.682;23.332;2023-02-18T09:44:10;95806.41;;;10.27;64.66
33155;BME280;19511;42.682;23.332;2023-02-18T09:46:56;95811.63;;;10.47;63.90
33155;BME280;19511;42.682;23.332;2023-02-18T09:49:29;95817.56;;;10.63;61.90
33155;BME280;19511;42.682;23.332;2023-02-18T09:52:10;95812.84;;;10.78;61.16
33155;BME280;19511;42.682;23.332;2023-02-18T09:54:36;95828.63;;;10.70;59.68
33155;BME280;19511;42.682;23.332;2023-02-18T09:57:05;95789.88;;;10.49;61.05
33155;BME280;19511;42.682;23.332;2023-02-18T09:59:36;95700.97;;;10.03;58.87
33155;BME280;19511;42.682;23.332;2023-02-18T10:02:08;95793.88;;;10.69;58.98
33155;BME280;19511;42.682;23.332;2023-02-18T10:04:43;95798.19;;;10.88;59.19
33155;BME280;19511;42.682;23.332;2023-02-18T10:07:20;95801.75;;;11.00;59.58
33155;BME280;19511;42.682;23.332;2023-02-18T10:09:53;95751.53;;;10.87;55.94
33155;BME280;19511;42.682;23.332;2023-02-18T10:12:24;95779.56;;;11.21;55.88
33155;BME280;19511;42.682;23.332;2023-02-18T10:14:53;95771.59;;;11.41;56.63
33155;BME280;19511;42.682;23.332;2023-02-18T10:17:22;95784.56;;;11.66;54.97
33155;BME280;19511;42.682;23.332;2023-02-18T10:19:50;95791.19;;;11.90;53.10
33155;BME280;19511;42.682;23.332;2023-02-18T10:22:18;95780.53;;;11.96;51.93
33155;BME280;19511;42.682;23.332;2023-02-18T10:25:00;95787.13;;;12.17;51.22
33155;BME280;19511;42.682;23.332;2023-02-18T10:27:32;95771.16;;;12.35;52.03
33155;BME280;19511;42.682;23.332;2023-02-18T10:36:10;95763.00;;;12.70;46.19
33155;BME280;19511;42.682;23.332;2023-02-18T10:44:02;95740.91;;;13.35;47.09
33155;BME280;19511;42.682;23.332;2023-02-18T10:52:13;95731.56;;;13.87;46.78
33155;BME280;19511;42.682;23.332;2023-02-18T10:55:11;95723.53;;;13.97;46.45
33155;BME280;19511;42.682;23.332;2023-02-18T10:57:51;95645.38;;;13.60;45.04
33155;BME280;19511;42.682;23.332;2023-02-18T11:00:25;95718.53;;;14.39;44.60
33155;BME280;19511;42.682;23.332;2023-02-18T11:03:19;95705.19;;;14.54;43.07
33155;BME280;19511;42.682;23.332;2023-02-18T11:05:55;95701.63;;;14.50;40.63
33155;BME280;19511;42.682;23.332;2023-02-18T11:08:26;95706.88;;;14.48;40.30
33155;BME280;19511;42.682;23.332;2023-02-18T11:10:54;95693.91;;;14.61;40.19
33155;BME280;19511;42.682;23.332;2023-02-18T11:13:26;95691.41;;;14.71;39.42
33155;BME280;19511;42.682;23.332;2023-02-18T11:16:04;95692.13;;;14.75;39.35
33155;BME280;19511;42.682;23.332;2023-02-18T11:18:40;95698.66;;;14.88;39.65
33155;BME280;19511;42.682;23.332;2023-02-18T11:21:39;95682.91;;;14.54;38.89
33155;BME280;19511;42.682;23.332;2023-02-18T11:24:15;95674.13;;;14.56;38.84
33155;BME280;19511;42.682;23.332;2023-02-18T11:26:41;95662.50;;;14.37;38.25
33155;BME280;19511;42.682;23.332;2023-02-18T11:29:17;95675.63;;;14.36;38.57
33155;BME280;19511;42.682;23.332;2023-02-18T11:31:46;95650.50;;;14.16;38.39
33155;BME280;19511;42.682;23.332;2023-02-18T11:34:22;95667.34;;;14.33;38.44
33155;BME280;19511;42.682;23.332;2023-02-18T11:36:50;95657.25;;;14.43;38.51
33155;BME280;19511;42.682;23.332;2023-02-18T11:39:25;95644.06;;;14.47;38.58
33155;BME280;19511;42.682;23.332;2023-02-18T11:42:04;95643.00;;;14.64;38.43
33155;BME280;19511;42.682;23.332;2023-02-18T11:44:42;95527.69;;;13.94;38.47
33155;BME280;19511;42.682;23.332;2023-02-18T11:49:43;95532.75;;;14.23;38.77
33155;BME280;19511;42.682;23.332;2023-02-18T11:52:21;95626.09;;;14.95;39.07
33155;BME280;19511;42.682;23.332;2023-02-18T11:57:34;95603.31;;;15.00;39.61
33155;BME280;19511;42.682;23.332;2023-02-18T12:00:04;95617.09;;;15.28;38.34
33155;BME280;19511;42.682;23.332;2023-02-18T12:02:41;95579.41;;;15.40;37.11
33155;BME280;19511;42.682;23.332;2023-02-18T12:05:15;95575.81;;;15.59;35.96
33155;BME280;19511;42.682;23.332;2023-02-18T12:07:47;95595.22;;;15.83;35.49
33155;BME280;19511;42.682;23.332;2023-02-18T12:10:28;95594.44;;;15.99;36.26
33155;BME280;19511;42.682;23.332;2023-02-18T12:13:00;95586.78;;;16.03;36.72
33155;BME280;19511;42.682;23.332;2023-02-18T12:23:54;95599.53;;;15.67;39.16
33155;BME280;19511;42.682;23.332;2023-02-18T12:26:35;95594.41;;;15.46;39.75
33155;BME280;19511;42.682;23.332;2023-02-18T12:32:08;95584.69;;;15.54;40.42
33155;BME280;19511;42.682;23.332;2023-02-18T13:04:19;95545.88;;;16.13;37.44
33155;BME280;19511;42.682;23.332;2023-02-18T13:17:42;95527.19;;;16.26;36.80
33155;BME280;19511;42.682;23.332;2023-02-18T13:20:21;95460.78;;;15.88;37.00
33155;BME280;19511;42.682;23.332;2023-02-18T13:22:49;95520.44;;;16.40;36.39
33155;BME280;19511;42.682;23.332;2023-02-18T13:25:18;95546.16;;;16.48;37.14
33155;BME280;19511;42.682;23.332;2023-02-18T13:27:57;95540.47;;;16.52;37.09
33155;BME280;19511;42.682;23.332;2023-02-18T13:36:31;95547.09;;;15.95;39.47
33155;BME280;19511;42.682;23.332;2023-02-18T13:39:06;95445.06;;;15.12;40.43
33155;BME280;19511;42.682;23.332;2023-02-18T13:41:41;95522.13;;;15.55;40.74
33155;BME280;19511;42.682;23.332;2023-02-18T13:45:00;95539.06;;;15.64;40.85
33155;BME280;19511;42.682;23.332;2023-02-18T13:46:58;95544.09;;;15.53;41.15
33155;BME280;19511;42.682;23.332;2023-02-18T13:49:27;95547.03;;;15.46;41.16
33155;BME280;19511;42.682;23.332;2023-02-18T13:51:57;95542.16;;;15.50;41.40
33155;BME280;19511;42.682;23.332;2023-02-18T13:54:30;95539.03;;;15.48;41.73
33155;BME280;19511;42.682;23.332;2023-02-18T13:57:05;95537.09;;;15.45;41.71
33155;BME280;19511;42.682;23.332;2023-02-18T13:59:35;95545.22;;;15.19;41.93
33155;BME280;19511;42.682;23.332;2023-02-18T14:04:51;95532.94;;;15.16;41.71
33155;BME280;19511;42.682;23.332;2023-02-18T14:07:25;95444.34;;;14.51;41.93
33155;BME280;19511;42.682;23.332;2023-02-18T14:09:56;95530.81;;;15.04;41.88
33155;BME280;19511;42.682;23.332;2023-02-18T14:17:47;95550.81;;;14.79;42.61
33155;BME280;19511;42.682;23.332;2023-02-18T14:22:49;95550.88;;;14.75;42.93
33155;BME280;19511;42.682;23.332;2023-02-18T14:25:34;95542.84;;;14.81;42.98
33155;BME280;19511;42.682;23.332;2023-02-18T14:33:39;95533.09;;;14.49;43.12
33155;BME280;19511;42.682;23.332;2023-02-18T14:36:24;95549.13;;;14.61;43.05
33155;BME280;19511;42.682;23.332;2023-02-18T14:44:29;95554.13;;;14.50;43.52
33155;BME280;19511;42.682;23.332;2023-02-18T14:49:41;95546.13;;;14.52;43.96
33155;BME280;19511;42.682;23.332;2023-02-18T14:52:37;95545.38;;;14.51;43.91
33155;BME280;19511;42.682;23.332;2023-02-18T14:55:39;95549.28;;;14.54;44.08
33155;BME280;19511;42.682;23.332;2023-02-18T14:58:28;95546.13;;;14.52;44.41
33155;BME280;19511;42.682;23.332;2023-02-18T15:03:46;95538.16;;;14.54;44.36
33155;BME280;19511;42.682;23.332;2023-02-18T15:06:40;95535.00;;;14.52;44.53
33155;BME280;19511;42.682;23.332;2023-02-18T15:09:29;95524.22;;;14.34;44.59
33155;BME280;19511;42.682;23.332;2023-02-18T15:15:02;95482.13;;;13.88;45.08
33155;BME280;19511;42.682;23.332;2023-02-18T15:17:45;95517.34;;;14.18;45.24
33155;BME280;19511;42.682;23.332;2023-02-18T15:20:33;95535.13;;;14.25;45.25
33155;BME280;19511;42.682;23.332;2023-02-18T15:23:14;95529.84;;;14.30;45.25
33155;BME280;19511;42.682;23.332;2023-02-18T15:25:53;95532.53;;;14.14;45.57
33155;BME280;19511;42.682;23.332;2023-02-18T15:28:32;95514.94;;;13.97;45.69